Aérodrome :
LOGIN :

S'inscrire | Disclaimer

   EN    FR    IT 

 










Légende :    VFR   VFR Marginal   IFR   IFR Intensif   IFR Très Intensif
Visi : 
Plafond : 
>= 8 km
>= 3000ft
5 à 8 km
1000 à 3000 ft
1500m à 5 km
500 à 1000 ft
800 à 1500m
200 à 500 ft
< 800m
< 200 ft
Symboles :   Orages  Brouillard  Fortes neiges  Fortes précipitations  Vent > 20 kt
SIGMETs :   Divers  Orages  Givrage  Turbulence  Onde Orograph.  Cendres Volcan.






- Altitude de l'aérodrome : 7 ft
- Code IATA : POW


LJPZ - Portoroz

DERNIER METAR :
  • 260500Z AUTO 12004KT 100V160 9999 NCD 14/13 Q1016

METARs EXPIRÉS :
  • 260430Z AUTO 12004KT 090V160 9999 NSC 14/13 Q1016
  • 260400Z AUTO 10004KT 9999 NSC 14/13 Q1016
  • 260330Z AUTO 12004KT 080V170 9999 NSC 14/13 Q1015
  • 260300Z AUTO 12004KT 100V160 9999 NSC 14/13 Q1015
  • 260230Z AUTO 11004KT 9999 NSC 14/13 Q1015
  • 260200Z AUTO 13004KT 100V180 9999 NSC 14/13 Q1015
  • 260130Z AUTO 12005KT 9999 NSC 15/13 Q1015
  • 260100Z AUTO 12005KT 9999 NSC 15/13 Q1016
  • 260030Z AUTO 12004KT 9999 NSC 15/14 Q1016

TAF TAF LJPZ
Valide du 26 à 03h jusqu'au 26 à 12h UTC


260200Z 2603/2612 12005KT CAVOK



MET'MAP, la Météo Aéronautique d'un coup d'oeil ! - Copyright ORBIFLY Décembre 2007 - Disclaimer

ORBIFLY MET'MAP TEAM :

Programmation & Développement : Alexandra Zaïnal
Sur une idée originale de : Baudouin d'Aumeries
Soutien technique & logistique : Manuel Goepfert
Assistance : Marc-Olivier Méhu




SOURCES & CREDITS :

   NOAA